Time;durP1;ratioP1;P1;durP2;ratioP2;P2;SDS_P1;SDS_P2;PMS_P1;PMS_P2;Temp;Humidity;BMP_temperature;BMP_pressure;BME280_temperature;BME280_humidity;BME280_pressure;Samples;Min_cycle;Max_cycle;Signal;HPM_P1;HPM_P2
2022/07/24 00:00:45;;;;;;;9.48;5.38;;;27.00;90.40;;;;;;5054251;28;20494;-24
2022/07/24 00:03:11;;;;;;;6.10;5.30;;;27.10;90.40;;;;;;5054144;28;20280;-24
2022/07/24 00:05:36;;;;;;;10.77;5.53;;;27.10;90.30;;;;;;5054003;28;20072;-24
2022/07/24 00:08:02;;;;;;;6.00;5.00;;;27.20;90.30;;;;;;5054410;28;20013;-24
2022/07/24 00:10:44;;;;;;;6.63;5.00;;;27.20;90.30;;;;;;5053227;28;20028;-24
2022/07/24 00:13:16;;;;;;;7.18;5.00;;;27.20;90.30;;;;;;5054136;28;20036;-24
2022/07/24 00:16:02;;;;;;;6.60;5.20;;;27.20;90.30;;;;;;5053835;28;20017;-24
2022/07/24 00:18:31;;;;;;;7.88;5.38;;;27.20;90.20;;;;;;5054012;28;20131;-24
2022/07/24 00:21:00;;;;;;;6.05;5.30;;;27.20;90.20;;;;;;5052934;28;20025;-24
2022/07/24 00:23:27;;;;;;;7.47;4.70;;;27.20;90.20;;;;;;5053781;28;20033;-24
2022/07/24 00:26:02;;;;;;;5.18;4.68;;;27.20;90.20;;;;;;5053715;28;20029;-24
2022/07/24 00:28:28;;;;;;;6.03;4.20;;;27.20;90.20;;;;;;5053488;28;20055;-24
2022/07/24 00:30:54;;;;;;;5.75;4.55;;;27.20;90.20;;;;;;5053800;28;20054;-24
2022/07/24 00:33:20;;;;;;;5.80;4.55;;;27.20;90.20;;;;;;5053683;28;20547;-24
2022/07/24 00:35:46;;;;;;;7.10;4.75;;;27.20;90.20;;;;;;5052578;28;20036;-24
2022/07/24 00:38:15;;;;;;;5.47;4.60;;;27.20;90.30;;;;;;5052675;28;20044;-24
2022/07/24 00:40:48;;;;;;;6.20;5.20;;;27.20;90.30;;;;;;5053638;28;20029;-24
2022/07/24 00:43:16;;;;;;;5.13;4.63;;;27.20;90.20;;;;;;5053616;28;20063;-25
2022/07/24 00:45:42;;;;;;;5.53;4.60;;;27.20;90.20;;;;;;5052026;28;20040;-25
2022/07/24 00:48:08;;;;;;;5.03;4.53;;;27.10;90.20;;;;;;5053448;28;20025;-25
2022/07/24 00:50:51;;;;;;;5.63;4.75;;;27.20;90.20;;;;;;5053422;28;20021;-24
2022/07/24 00:53:19;;;;;;;6.00;4.88;;;27.20;90.30;;;;;;5053831;28;20031;-24
2022/07/24 00:55:45;;;;;;;6.10;4.60;;;27.10;90.20;;;;;;5053645;28;20032;-24
2022/07/24 00:58:12;;;;;;;6.47;4.85;;;27.20;90.30;;;;;;5053763;28;20400;-24
2022/07/24 01:01:00;;;;;;;4.55;4.15;;;27.10;90.20;;;;;;5053460;28;20432;-24
2022/07/24 01:03:25;;;;;;;5.93;4.82;;;27.20;90.30;;;;;;5054920;28;20040;-24
2022/07/24 01:05:59;;;;;;;5.70;4.57;;;27.10;90.20;;;;;;5054719;28;20033;-24
2022/07/24 01:08:26;;;;;;;5.35;4.70;;;27.20;90.20;;;;;;5054682;28;20025;-24
2022/07/24 01:10:57;;;;;;;5.00;4.50;;;27.10;90.20;;;;;;5053171;28;20021;-24
2022/07/24 01:13:23;;;;;;;4.95;4.47;;;27.10;90.20;;;;;;5053021;28;20040;-24
2022/07/24 01:15:49;;;;;;;6.30;4.85;;;27.10;90.20;;;;;;5053049;28;20028;-24
2022/07/24 01:18:14;;;;;;;4.88;4.40;;;27.10;90.20;;;;;;5051263;28;20115;-24
2022/07/24 01:20:55;;;;;;;5.55;5.05;;;27.10;90.20;;;;;;5052653;28;20025;-24
2022/07/24 01:23:39;;;;;;;6.78;5.00;;;27.10;90.30;;;;;;5051025;28;20469;-24
2022/07/24 01:26:24;;;;;;;6.13;4.68;;;27.10;90.30;;;;;;5052632;28;20029;-24
2022/07/24 01:28:51;;;;;;;6.07;5.35;;;27.10;90.30;;;;;;5052199;28;20047;-25
2022/07/24 01:31:20;;;;;;;5.63;4.40;;;27.10;90.30;;;;;;5052596;28;20025;-25
2022/07/24 01:34:05;;;;;;;6.00;4.60;;;27.10;90.30;;;;;;5053032;28;20043;-24
2022/07/24 01:36:40;;;;;;;5.65;4.68;;;27.10;90.30;;;;;;5052552;28;20025;-24
2022/07/24 01:39:06;;;;;;;4.65;4.22;;;27.10;90.30;;;;;;5051531;28;20025;-24
2022/07/24 01:41:32;;;;;;;7.53;5.00;;;27.10;90.30;;;;;;5052278;28;20043;-24
2022/07/24 01:43:58;;;;;;;5.07;4.50;;;27.10;90.30;;;;;;5052401;28;20025;-24
2022/07/24 01:46:40;;;;;;;5.30;4.80;;;27.10;90.30;;;;;;5052710;28;20548;-24
2022/07/24 01:49:07;;;;;;;6.45;4.88;;;27.10;90.30;;;;;;5052179;28;20021;-24
2022/07/24 01:51:33;;;;;;;7.50;4.93;;;27.10;90.30;;;;;;5052474;28;20052;-24
2022/07/24 01:54:02;;;;;;;5.18;4.68;;;27.10;90.30;;;;;;5051891;28;20398;-24
2022/07/24 01:56:31;;;;;;;4.72;4.32;;;27.00;90.20;;;;;;5052082;28;20056;-24
2022/07/24 01:58:58;;;;;;;6.43;4.65;;;27.00;90.20;;;;;;5051991;28;20699;-24
2022/07/24 02:01:27;;;;;;;5.03;4.53;;;27.00;90.20;;;;;;5050964;28;20029;-24
2022/07/24 02:03:53;;;;;;;6.97;4.57;;;27.00;90.20;;;;;;5051856;28;20025;-24
2022/07/24 02:06:29;;;;;;;5.45;4.95;;;27.00;90.20;;;;;;5051861;28;20025;-24
2022/07/24 02:08:54;;;;;;;6.13;5.03;;;27.00;90.20;;;;;;5051800;28;20454;-24
2022/07/24 02:11:25;;;;;;;5.05;4.40;;;27.00;90.20;;;;;;5051930;28;20029;-24
2022/07/24 02:13:53;;;;;;;5.13;4.47;;;27.10;90.40;;;;;;5050847;28;20041;-24
2022/07/24 02:16:24;;;;;;;5.32;4.50;;;27.00;90.20;;;;;;5051990;28;20036;-24
2022/07/24 02:19:24;;;;;;;6.22;4.80;;;27.00;90.20;;;;;;5051484;28;20036;-24
2022/07/24 02:21:50;;;;;;;6.55;4.45;;;27.00;90.20;;;;;;5051955;28;20032;-24
2022/07/24 02:24:27;;;;;;;4.65;4.25;;;27.00;90.20;;;;;;5051885;28;20405;-24
2022/07/24 02:26:52;;;;;;;4.90;4.35;;;27.00;90.50;;;;;;5052200;28;20017;-24
2022/07/24 02:29:28;;;;;;;5.25;4.60;;;27.00;90.20;;;;;;5051589;28;20466;-24
2022/07/24 02:32:10;;;;;;;5.32;4.82;;;27.00;90.20;;;;;;5051778;28;20509;-24
2022/07/24 02:34:36;;;;;;;5.05;4.57;;;27.00;90.20;;;;;;5055298;28;20429;-24
2022/07/24 02:37:22;;;;;;;4.95;4.38;;;27.00;90.20;;;;;;5055907;28;20124;-24
2022/07/24 02:40:10;;;;;;;4.82;4.10;;;27.00;90.10;;;;;;5055533;28;20441;-24
2022/07/24 02:42:36;;;;;;;4.63;4.22;;;27.00;90.10;;;;;;5054369;28;20021;-24
2022/07/24 02:45:09;;;;;;;5.43;4.80;;;27.00;90.20;;;;;;5055861;28;20025;-24
2022/07/24 02:47:46;;;;;;;4.78;4.38;;;27.00;90.10;;;;;;5055728;28;20021;-24
2022/07/24 02:50:35;;;;;;;6.93;4.60;;;27.00;90.10;;;;;;5055355;28;20029;-24
2022/07/24 02:53:18;;;;;;;4.75;4.35;;;27.00;90.10;;;;;;5055495;28;20455;-24
2022/07/24 02:55:53;;;;;;;5.93;4.80;;;26.90;90.10;;;;;;5054325;28;20115;-24
2022/07/24 02:58:22;;;;;;;6.13;4.22;;;26.90;90.10;;;;;;5055301;28;20040;-24
2022/07/24 03:00:52;;;;;;;5.45;4.55;;;27.00;90.10;;;;;;5055688;28;20393;-24
2022/07/24 03:03:20;;;;;;;6.32;4.85;;;27.00;90.10;;;;;;5055425;28;20032;-24
2022/07/24 03:05:46;;;;;;;5.50;4.60;;;26.90;90.10;;;;;;5055469;28;20500;-24
2022/07/24 03:08:18;;;;;;;5.55;4.88;;;26.90;90.10;;;;;;5056931;28;20036;-24
2022/07/24 03:10:44;;;;;;;4.90;4.40;;;26.90;90.10;;;;;;5055256;28;20079;-24
2022/07/24 03:13:12;;;;;;;5.10;4.40;;;27.00;90.10;;;;;;5054900;28;20032;-24
2022/07/24 03:15:41;;;;;;;5.43;4.57;;;26.90;90.10;;;;;;5055160;28;20021;-24
2022/07/24 03:18:07;;;;;;;6.45;4.50;;;26.90;90.10;;;;;;5053651;28;20029;-24
2022/07/24 03:20:57;;;;;;;5.38;4.65;;;26.90;90.10;;;;;;5054906;28;20484;-24
2022/07/24 03:23:23;;;;;;;5.38;4.50;;;26.90;90.10;;;;;;5054787;28;20100;-24
2022/07/24 03:25:52;;;;;;;5.30;4.55;;;26.90;90.00;;;;;;5053589;28;20124;-24
2022/07/24 03:28:18;;;;;;;4.97;4.50;;;26.90;90.00;;;;;;5054668;28;20053;-24
2022/07/24 03:30:44;;;;;;;4.93;4.43;;;26.90;90.10;;;;;;5055073;28;20032;-24
2022/07/24 03:33:19;;;;;;;4.85;4.35;;;26.90;90.00;;;;;;5055098;28;20029;-24
2022/07/24 03:35:45;;;;;;;8.52;4.43;;;26.90;90.00;;;;;;5055346;28;20035;-24
2022/07/24 03:38:11;;;;;;;5.40;4.18;;;26.90;90.00;;;;;;5053080;28;20478;-24
2022/07/24 03:40:36;;;;;;;4.75;4.18;;;26.90;90.00;;;;;;5055030;28;20159;-24
2022/07/24 03:43:03;;;;;;;4.90;4.30;;;26.90;90.00;;;;;;5054790;28;20141;-24
2022/07/24 03:45:30;;;;;;;4.75;4.28;;;26.90;90.00;;;;;;5053551;28;20021;-24
2022/07/24 03:47:56;;;;;;;6.97;4.47;;;26.90;90.00;;;;;;5053520;28;20040;-24
2022/07/24 03:50:29;;;;;;;4.90;4.47;;;26.80;90.00;;;;;;5054843;28;20021;-24
2022/07/24 03:52:54;;;;;;;5.20;4.40;;;26.80;90.00;;;;;;5054566;28;20029;-24
2022/07/24 03:55:21;;;;;;;4.70;4.30;;;26.80;90.00;;;;;;5054323;28;20029;-24
2022/07/24 03:57:50;;;;;;;4.63;4.20;;;26.80;90.00;;;;;;5053404;28;20040;-24
2022/07/24 04:00:28;;;;;;;5.05;4.40;;;26.80;90.00;;;;;;5054223;28;20033;-24
2022/07/24 04:02:54;;;;;;;5.15;4.65;;;26.80;90.00;;;;;;5054192;28;20159;-24
2022/07/24 04:05:39;;;;;;;5.30;4.57;;;26.80;90.00;;;;;;5054034;28;20033;-24
2022/07/24 04:08:05;;;;;;;5.40;4.50;;;26.80;90.00;;;;;;5054329;28;20033;-24
2022/07/24 04:10:31;;;;;;;4.55;4.13;;;26.80;90.00;;;;;;5054121;28;20017;-24
2022/07/24 04:12:58;;;;;;;7.50;4.35;;;26.80;90.00;;;;;;5052935;28;20389;-24
2022/07/24 04:15:24;;;;;;;5.53;4.47;;;26.70;90.00;;;;;;5053941;28;20112;-24
2022/07/24 04:17:50;;;;;;;4.60;4.20;;;26.70;90.00;;;;;;5053868;28;20493;-24
2022/07/24 04:20:15;;;;;;;5.18;4.40;;;26.70;90.00;;;;;;5053620;28;20410;-24
2022/07/24 04:22:47;;;;;;;5.80;4.75;;;26.70;90.00;;;;;;5053912;28;20025;-24
2022/07/24 04:25:34;;;;;;;5.63;4.30;;;26.70;90.00;;;;;;5053637;28;20543;-24
2022/07/24 04:28:04;;;;;;;5.57;4.43;;;26.70;90.00;;;;;;5053562;28;20051;-24
2022/07/24 04:30:31;;;;;;;4.63;4.15;;;26.70;90.00;;;;;;5054458;28;20482;-24
2022/07/24 04:32:57;;;;;;;4.97;4.18;;;26.70;90.00;;;;;;5056328;28;20075;-24
2022/07/24 04:35:27;;;;;;;5.53;4.38;;;26.70;90.00;;;;;;5053661;28;20037;-24
2022/07/24 04:37:54;;;;;;;4.85;4.38;;;26.70;90.00;;;;;;5053622;28;20040;-24
2022/07/24 04:40:27;;;;;;;5.05;4.60;;;26.60;90.00;;;;;;5052238;28;20029;-24
2022/07/24 04:42:54;;;;;;;6.45;4.95;;;26.60;90.00;;;;;;5053686;28;20029;-24
2022/07/24 04:45:22;;;;;;;4.90;4.40;;;26.60;90.00;;;;;;5052230;28;20035;-24
2022/07/24 04:47:48;;;;;;;5.15;4.65;;;26.60;90.00;;;;;;5053336;28;20047;-24
2022/07/24 04:50:14;;;;;;;4.97;4.30;;;26.60;90.00;;;;;;5053147;28;20017;-24
2022/07/24 04:52:40;;;;;;;4.72;4.32;;;26.60;90.00;;;;;;5053298;28;20105;-24
2022/07/24 04:55:06;;;;;;;5.30;4.47;;;26.60;90.00;;;;;;5053517;28;20441;-24
2022/07/24 04:57:32;;;;;;;5.45;4.47;;;26.60;90.00;;;;;;5052705;28;20096;-24
2022/07/24 05:00:00;;;;;;;5.25;4.75;;;26.60;90.00;;;;;;5053001;28;20504;-24
2022/07/24 05:02:26;;;;;;;5.47;4.38;;;26.60;90.00;;;;;;5051791;28;20025;-24
2022/07/24 05:04:52;;;;;;;5.75;4.68;;;26.60;90.00;;;;;;5051567;28;20429;-24
2022/07/24 05:07:18;;;;;;;4.95;4.55;;;26.60;90.00;;;;;;5053008;28;20032;-24
2022/07/24 05:09:54;;;;;;;5.30;4.22;;;26.60;90.00;;;;;;5052702;28;20025;-24
2022/07/24 05:12:20;;;;;;;5.30;4.50;;;26.60;90.00;;;;;;5053109;28;20029;-24
2022/07/24 05:14:46;;;;;;;5.57;4.55;;;26.50;90.00;;;;;;5052787;28;20390;-24
2022/07/24 05:17:13;;;;;;;4.97;4.45;;;26.50;90.00;;;;;;5052810;28;20029;-24
2022/07/24 05:19:39;;;;;;;5.28;4.70;;;26.50;90.00;;;;;;5052677;28;20029;-24
2022/07/24 05:22:04;;;;;;;5.18;4.68;;;26.50;90.00;;;;;;5052607;28;20394;-24
2022/07/24 05:24:30;;;;;;;4.57;4.18;;;26.50;90.10;;;;;;5070926;22;20127;-26
2022/07/24 05:26:56;;;;;;;5.13;4.63;;;26.50;90.00;;;;;;5032840;28;20064;-25
2022/07/24 05:29:22;;;;;;;6.00;4.93;;;26.50;90.00;;;;;;5032480;28;20526;-26
2022/07/24 05:31:49;;;;;;;4.55;4.15;;;26.50;90.00;;;;;;5032536;28;20112;-25
2022/07/24 05:34:34;;;;;;;5.63;4.53;;;26.50;90.10;;;;;;5032975;28;20033;-26
2022/07/24 05:37:00;;;;;;;4.97;4.47;;;26.50;90.10;;;;;;5032578;28;20073;-26
2022/07/24 05:39:26;;;;;;;6.13;4.50;;;26.50;90.10;;;;;;5014657;28;20479;-25
2022/07/24 05:42:09;;;;;;;6.03;4.80;;;26.50;90.10;;;;;;5014822;28;20044;-25
2022/07/24 05:44:39;;;;;;;5.18;4.60;;;26.50;90.10;;;;;;5032332;28;20026;-25
2022/07/24 05:47:09;;;;;;;5.28;4.78;;;26.50;90.10;;;;;;5032115;28;20104;-26
2022/07/24 05:49:38;;;;;;;5.05;4.55;;;26.50;90.10;;;;;;5032047;28;20049;-25
2022/07/24 05:52:04;;;;;;;5.85;4.78;;;26.50;90.10;;;;;;5032316;28;20056;-26
2022/07/24 05:54:30;;;;;;;4.93;4.43;;;26.50;90.10;;;;;;5032157;28;20348;-25
2022/07/24 05:56:56;;;;;;;5.60;4.70;;;26.50;90.10;;;;;;5032239;28;20025;-26
2022/07/24 05:59:22;;;;;;;6.22;4.78;;;26.40;90.10;;;;;;5031927;28;20048;-25
2022/07/24 06:01:50;;;;;;;5.35;4.82;;;26.40;90.10;;;;;;5031928;28;20108;-26
2022/07/24 06:04:25;;;;;;;5.45;4.82;;;26.40;90.10;;;;;;5015810;28;20029;-26
2022/07/24 06:06:51;;;;;;;5.55;4.68;;;26.40;90.10;;;;;;5032041;28;20096;-25
2022/07/24 06:09:20;;;;;;;5.43;4.60;;;26.40;90.20;;;;;;5031255;28;20030;-26
2022/07/24 06:11:50;;;;;;;5.15;4.65;;;26.40;90.20;;;;;;5032031;28;20021;-26
2022/07/24 06:14:39;;;;;;;6.47;5.00;;;26.40;90.20;;;;;;5031882;28;20121;-26
2022/07/24 06:17:07;;;;;;;;;;;26.40;90.20;;;;;;5032493;28;20033;-26
2022/07/24 06:19:35;;;;;;;5.15;4.65;;;26.40;90.20;;;;;;5031793;28;19905;-26
2022/07/24 06:22:21;;;;;;;5.13;4.65;;;26.40;90.20;;;;;;5031892;28;20079;-25
2022/07/24 06:24:48;;;;;;;5.43;4.88;;;26.50;90.20;;;;;;5031224;28;20128;-26
2022/07/24 06:27:14;;;;;;;5.20;4.65;;;26.50;90.20;;;;;;5031714;28;20017;-25
2022/07/24 06:29:41;;;;;;;5.28;4.78;;;26.50;90.20;;;;;;5031660;28;20398;-26
2022/07/24 06:32:14;;;;;;;5.78;5.13;;;26.50;90.20;;;;;;5031686;28;20025;-26
2022/07/24 06:34:40;;;;;;;6.82;4.82;;;26.50;90.10;;;;;;5031782;28;20104;-26
2022/07/24 06:37:06;;;;;;;5.38;4.88;;;26.50;90.10;;;;;;5031621;28;20514;-26
2022/07/24 06:39:35;;;;;;;5.03;4.53;;;26.50;90.10;;;;;;5031459;28;20033;-25
2022/07/24 06:42:01;;;;;;;5.78;4.95;;;26.50;90.10;;;;;;5031691;28;20031;-26
2022/07/24 06:44:27;;;;;;;5.10;4.57;;;26.50;90.10;;;;;;5031568;28;20108;-26
2022/07/24 06:46:53;;;;;;;4.50;4.10;;;26.50;90.10;;;;;;5031642;28;20658;-26
2022/07/24 06:49:34;;;;;;;5.63;4.90;;;26.50;90.10;;;;;;5031413;28;20025;-26
2022/07/24 06:52:04;;;;;;;5.55;4.97;;;26.50;90.10;;;;;;5032119;28;20104;-26
2022/07/24 06:54:32;;;;;;;4.97;4.47;;;26.50;90.10;;;;;;5031717;28;20025;-26
2022/07/24 06:57:00;;;;;;;4.75;4.35;;;26.50;90.10;;;;;;5031700;28;20068;-25
2022/07/24 06:59:26;;;;;;;6.22;4.40;;;26.50;90.10;;;;;;5031285;28;20026;-25
2022/07/24 07:01:56;;;;;;;4.72;4.32;;;26.50;90.20;;;;;;5031557;28;20037;-26
2022/07/24 07:04:23;;;;;;;4.88;4.35;;;26.50;90.20;;;;;;5014185;28;20887;-26
2022/07/24 07:06:49;;;;;;;6.60;4.50;;;26.50;90.20;;;;;;5031583;28;20021;-26
2022/07/24 07:09:20;;;;;;;5.07;4.57;;;26.40;90.50;;;;;;5031398;28;20021;-26
2022/07/24 07:11:47;;;;;;;4.68;4.28;;;26.40;90.20;;;;;;5031515;28;20022;-25
2022/07/24 07:14:14;;;;;;;5.32;4.65;;;26.40;90.20;;;;;;5013594;28;20386;-26
2022/07/24 07:16:39;;;;;;;4.63;4.20;;;26.40;90.20;;;;;;5031462;28;20017;-25
2022/07/24 07:19:09;;;;;;;5.43;4.53;;;26.40;90.20;;;;;;5032493;28;20101;-26
2022/07/24 07:21:40;;;;;;;7.07;4.72;;;26.40;90.20;;;;;;5035589;28;20032;-26
2022/07/24 07:24:14;;;;;;;4.78;4.38;;;26.40;90.20;;;;;;5019418;28;20057;-26
2022/07/24 07:26:40;;;;;;;5.10;4.55;;;26.40;90.20;;;;;;5020295;28;20072;-25
2022/07/24 07:29:07;;;;;;;4.53;4.13;;;26.50;90.30;;;;;;5018939;28;20108;-26
2022/07/24 07:31:35;;;;;;;4.43;4.03;;;26.40;90.20;;;;;;5037078;28;20029;-25
2022/07/24 07:34:08;;;;;;;4.85;4.45;;;26.50;90.20;;;;;;5035006;28;20095;-26
2022/07/24 07:36:34;;;;;;;4.73;4.20;;;26.50;90.20;;;;;;5034951;28;20036;-26
2022/07/24 07:39:01;;;;;;;4.80;4.05;;;26.50;90.20;;;;;;5034560;28;20260;-26
2022/07/24 07:41:26;;;;;;;4.80;4.35;;;26.50;90.20;;;;;;5034759;28;20026;-25
2022/07/24 07:43:53;;;;;;;4.68;4.25;;;26.50;90.10;;;;;;5016933;28;20491;-26
2022/07/24 07:46:26;;;;;;;11.30;4.80;;;26.60;90.10;;;;;;5034533;28;20026;-26
2022/07/24 07:48:53;;;;;;;7.68;4.43;;;26.50;87.40;;;;;;5034454;28;20021;-26
2022/07/24 07:51:20;;;;;;;5.82;5.03;;;26.30;87.60;;;;;;5034664;28;20040;-26
2022/07/24 07:53:46;;;;;;;7.82;5.05;;;26.30;88.00;;;;;;5034511;28;20471;-26
2022/07/24 07:56:20;;;;;;;7.20;4.75;;;26.30;88.10;;;;;;5034231;28;20030;-25
2022/07/24 07:58:48;;;;;;;6.72;4.93;;;26.40;88.20;;;;;;5034237;28;20025;-26
2022/07/24 08:01:13;;;;;;;6.22;5.40;;;26.50;88.10;;;;;;5034441;28;20116;-26
2022/07/24 08:03:42;;;;;;;8.38;5.15;;;26.50;88.00;;;;;;5034288;28;20551;-26
2022/07/24 08:06:07;;;;;;;6.22;4.90;;;26.60;88.10;;;;;;5034235;28;20024;-26
2022/07/24 08:08:35;;;;;;;6.78;4.88;;;26.60;88.00;;;;;;5034025;28;20026;-27
2022/07/24 08:11:01;;;;;;;5.30;4.80;;;26.70;88.20;;;;;;5034197;28;20048;-26
2022/07/24 08:13:27;;;;;;;10.68;5.10;;;26.70;88.20;;;;;;5034082;28;20048;-27
2022/07/24 08:15:53;;;;;;;7.03;4.75;;;26.70;88.20;;;;;;5034049;28;20055;-27
2022/07/24 08:18:19;;;;;;;6.07;4.25;;;26.70;88.20;;;;;;5033770;28;20033;-26
2022/07/24 08:20:46;;;;;;;6.35;4.20;;;26.80;88.30;;;;;;5034040;28;20367;-27
2022/07/24 08:23:13;;;;;;;10.75;4.70;;;26.80;88.30;;;;;;5033867;28;20086;-27
2022/07/24 08:25:41;;;;;;;15.40;4.45;;;26.80;88.30;;;;;;5033540;28;20156;-27
2022/07/24 08:28:08;;;;;;;5.47;4.35;;;26.80;88.30;;;;;;5033726;28;20028;-27
2022/07/24 08:30:38;;;;;;;5.32;4.78;;;26.80;89.10;;;;;;5033091;28;20022;-27
2022/07/24 08:33:07;;;;;;;7.10;4.45;;;26.80;88.40;;;;;;5033930;28;20033;-27
2022/07/24 08:35:53;;;;;;;6.68;4.75;;;26.80;88.50;;;;;;5018841;28;20136;-27
2022/07/24 08:38:35;;;;;;;5.60;4.57;;;26.80;88.50;;;;;;5033670;28;20030;-27
2022/07/24 08:41:01;;;;;;;5.82;4.13;;;26.80;88.50;;;;;;5033645;28;20035;-27
2022/07/24 08:43:28;;;;;;;4.90;4.18;;;26.80;88.60;;;;;;5033495;28;20048;-27
2022/07/24 08:46:00;;;;;;;4.70;4.25;;;26.80;88.70;;;;;;5033432;28;20028;-27
2022/07/24 08:48:28;;;;;;;6.23;4.07;;;26.80;88.70;;;;;;5033273;28;20100;-27
2022/07/24 08:51:09;;;;;;;4.85;4.35;;;26.80;88.70;;;;;;5033584;28;20100;-27
2022/07/24 08:53:35;;;;;;;5.18;4.50;;;26.80;89.50;;;;;;5033489;28;20498;-27
2022/07/24 08:56:00;;;;;;;5.65;4.00;;;26.80;88.80;;;;;;5033596;28;20033;-27
2022/07/24 08:58:42;;;;;;;4.82;4.13;;;26.80;88.80;;;;;;5033039;28;20030;-27
2022/07/24 09:01:08;;;;;;;5.00;4.22;;;26.80;88.80;;;;;;5033024;28;20017;-27
2022/07/24 09:03:45;;;;;;;4.40;3.95;;;26.80;88.80;;;;;;5033154;28;20029;-27
2022/07/24 09:06:11;;;;;;;4.28;3.88;;;26.90;88.80;;;;;;5033131;28;20529;-27
2022/07/24 09:08:42;;;;;;;4.65;4.10;;;26.90;88.80;;;;;;5032900;28;20026;-27
2022/07/24 09:11:09;;;;;;;5.68;4.20;;;26.90;88.70;;;;;;5033189;28;20022;-27
2022/07/24 09:16:25;;;;;;;5.63;3.88;;;26.90;88.70;;;;;;5033017;28;20044;-26
2022/07/24 09:19:07;;;;;;;4.47;3.70;;;26.90;88.80;;;;;;5032651;28;20053;-26
2022/07/24 09:21:35;;;;;;;5.20;3.88;;;26.90;88.70;;;;;;5032816;28;20068;-26
2022/07/24 09:24:10;;;;;;;5.05;4.18;;;26.90;88.80;;;;;;5032721;28;20382;-26
2022/07/24 09:26:56;;;;;;;4.05;3.65;;;26.90;88.80;;;;;;5032767;28;20426;-26
2022/07/24 09:29:23;;;;;;;4.10;3.55;;;26.90;88.90;;;;;;5032465;28;20359;-26
2022/07/24 09:32:07;;;;;;;7.20;3.97;;;26.90;88.90;;;;;;5032641;28;20463;-26
2022/07/24 09:34:42;;;;;;;4.95;4.00;;;26.90;88.90;;;;;;5032627;28;20113;-25
2022/07/24 09:37:08;;;;;;;4.28;3.63;;;26.90;88.90;;;;;;5032605;28;20061;-25
2022/07/24 09:39:36;;;;;;;3.92;3.53;;;26.90;88.90;;;;;;5032331;28;20512;-26
2022/07/24 09:42:05;;;;;;;4.18;3.78;;;26.90;89.00;;;;;;5032455;28;20446;-26
2022/07/24 09:44:31;;;;;;;3.85;3.50;;;26.90;89.00;;;;;;5032252;28;20041;-26
2022/07/24 09:46:58;;;;;;;4.57;3.50;;;26.90;89.80;;;;;;5032326;28;20120;-27
2022/07/24 09:49:26;;;;;;;4.18;3.80;;;26.80;89.00;;;;;;5032124;28;20022;-26
2022/07/24 09:52:07;;;;;;;4.22;3.80;;;26.80;89.10;;;;;;5032345;28;20021;-26
2022/07/24 09:54:35;;;;;;;6.18;3.78;;;26.80;89.10;;;;;;5032212;28;20025;-26
2022/07/24 09:57:20;;;;;;;4.30;3.63;;;26.80;89.10;;;;;;5032140;28;20076;-26
2022/07/24 09:59:47;;;;;;;;;;;26.80;89.20;;;;;;5032513;28;20033;-26
2022/07/24 10:02:14;;;;;;;4.40;4.00;;;26.80;89.20;;;;;;5032169;28;19905;-26
2022/07/24 10:04:42;;;;;;;4.75;3.83;;;26.80;89.30;;;;;;5032052;28;20030;-26
2022/07/24 10:07:13;;;;;;;4.25;3.85;;;26.80;89.40;;;;;;5031962;28;20442;-26
2022/07/24 10:09:44;;;;;;;4.40;3.88;;;26.80;89.30;;;;;;5031787;28;20026;-26
2022/07/24 10:12:15;;;;;;;3.92;3.58;;;26.80;89.40;;;;;;5032000;28;20014;-26
2022/07/24 10:14:43;;;;;;;5.95;3.97;;;26.80;89.40;;;;;;5031925;28;20112;-26
2022/07/24 10:17:11;;;;;;;4.13;3.67;;;26.70;90.00;;;;;;5031925;28;20536;-26
2022/07/24 10:19:45;;;;;;;5.80;4.03;;;26.70;89.40;;;;;;5031784;28;20487;-26
2022/07/24 10:22:22;;;;;;;4.22;3.80;;;26.80;89.50;;;;;;5031804;28;20443;-26
2022/07/24 10:24:55;;;;;;;3.67;3.33;;;26.70;89.50;;;;;;5031732;28;20025;-26
2022/07/24 10:27:26;;;;;;;5.33;3.67;;;26.70;89.50;;;;;;5031922;28;20426;-26
2022/07/24 10:29:57;;;;;;;4.22;3.83;;;26.70;89.50;;;;;;5031659;28;20260;-26
2022/07/24 10:32:24;;;;;;;5.30;3.83;;;26.70;89.50;;;;;;5031864;28;20021;-26
2022/07/24 10:35:23;;;;;;;4.30;3.33;;;26.70;89.50;;;;;;5031662;28;20049;-26
2022/07/24 10:38:00;;;;;;;4.97;3.50;;;26.70;89.60;;;;;;5009982;28;20037;-26
2022/07/24 10:40:48;;;;;;;4.00;3.60;;;26.70;89.50;;;;;;5031512;28;20113;-25
2022/07/24 10:43:16;;;;;;;4.15;3.47;;;26.80;89.60;;;;;;5031735;28;20064;-25
2022/07/24 10:46:06;;;;;;;4.93;3.75;;;26.80;89.60;;;;;;5031602;28;20382;-26
2022/07/24 10:48:36;;;;;;;4.97;3.47;;;26.80;89.60;;;;;;5031391;28;20025;-26
2022/07/24 10:51:07;;;;;;;4.32;3.45;;;26.80;89.50;;;;;;5031655;28;20099;-26
2022/07/24 10:53:38;;;;;;;4.85;3.50;;;26.80;89.40;;;;;;5031585;28;20113;-26
2022/07/24 10:56:25;;;;;;;4.10;3.70;;;26.90;89.40;;;;;;5035572;28;20029;-26
2022/07/24 10:58:56;;;;;;;3.92;3.47;;;26.90;89.30;;;;;;5035417;28;20025;-26
2022/07/24 11:01:50;;;;;;;5.05;3.63;;;26.90;89.20;;;;;;5035585;28;20029;-26
2022/07/24 11:04:19;;;;;;;4.30;3.90;;;27.00;89.10;;;;;;5035389;28;20025;-26
2022/07/24 11:06:47;;;;;;;3.88;3.47;;;27.00;88.90;;;;;;5035459;28;20022;-26
2022/07/24 11:09:14;;;;;;;4.13;3.58;;;27.10;88.90;;;;;;5035208;28;20018;-26
2022/07/24 11:12:01;;;;;;;4.13;3.80;;;27.10;88.70;;;;;;5035314;28;20418;-26
2022/07/24 11:14:47;;;;;;;4.03;3.55;;;27.20;88.70;;;;;;5034624;28;20037;-26
2022/07/24 11:17:51;;;;;;;4.13;3.47;;;27.20;88.50;;;;;;5035219;28;20048;-26
2022/07/24 11:20:19;;;;;;;3.70;3.35;;;27.30;88.40;;;;;;4973812;28;20548;-26
2022/07/24 11:22:57;;;;;;;5.07;3.70;;;27.20;88.30;;;;;;4973948;28;20107;-26
2022/07/24 11:25:27;;;;;;;3.95;3.55;;;27.30;88.40;;;;;;5008677;28;20056;-27
2022/07/24 11:27:57;;;;;;;4.30;3.60;;;27.30;88.50;;;;;;5034995;28;20112;-27
2022/07/24 11:30:26;;;;;;;5.47;3.60;;;27.30;88.50;;;;;;5034870;28;20022;-27
2022/07/24 11:32:52;;;;;;;3.95;3.40;;;27.20;88.40;;;;;;5034895;28;20483;-27
2022/07/24 11:35:31;;;;;;;3.90;3.40;;;27.20;88.40;;;;;;5034766;28;20051;-27
2022/07/24 11:37:59;;;;;;;3.70;3.40;;;27.20;88.50;;;;;;5034841;28;20378;-27
2022/07/24 11:40:25;;;;;;;3.80;3.40;;;27.20;88.50;;;;;;5034677;28;20025;-27
2022/07/24 11:42:56;;;;;;;3.95;3.28;;;27.20;88.60;;;;;;5034786;28;20108;-27
2022/07/24 11:45:21;;;;;;;3.55;3.25;;;27.20;88.70;;;;;;5016999;28;20501;-27
2022/07/24 11:47:47;;;;;;;5.38;4.20;;;27.20;88.70;;;;;;5034602;28;20037;-27
2022/07/24 11:50:13;;;;;;;6.13;4.72;;;27.10;86.40;;;;;;5034409;28;20025;-26
2022/07/24 11:52:40;;;;;;;6.03;5.03;;;27.10;85.90;;;;;;5034539;28;20108;-26
2022/07/24 11:55:14;;;;;;;7.95;5.28;;;27.20;86.00;;;;;;5034401;28;20059;-26
2022/07/24 11:57:41;;;;;;;;;;;27.30;86.20;;;;;;5034873;28;20025;-26
2022/07/24 12:00:10;;;;;;;7.68;4.95;;;27.40;86.40;;;;;;5034098;28;19905;-26
2022/07/24 12:02:36;;;;;;;5.65;4.90;;;27.40;86.40;;;;;;5034353;28;20368;-26
2022/07/24 12:05:02;;;;;;;5.95;5.30;;;27.50;86.40;;;;;;5033980;28;20037;-26
2022/07/24 12:07:29;;;;;;;6.07;5.47;;;27.50;86.30;;;;;;5033464;28;20471;-26
2022/07/24 12:09:57;;;;;;;6.43;5.40;;;27.60;86.40;;;;;;5034068;28;20021;-26
2022/07/24 12:12:24;;;;;;;6.25;5.65;;;27.60;86.40;;;;;;5034200;28;20032;-26
2022/07/24 12:15:14;;;;;;;6.65;5.78;;;27.70;86.50;;;;;;5033906;28;20048;-26
2022/07/24 12:18:03;;;;;;;5.85;5.10;;;27.70;86.50;;;;;;5033737;28;20038;-26
2022/07/24 12:20:37;;;;;;;6.43;5.00;;;27.70;86.50;;;;;;5016099;28;20513;-26
2022/07/24 12:23:05;;;;;;;5.60;5.00;;;27.70;86.50;;;;;;5034063;28;20371;-26
2022/07/24 12:25:31;;;;;;;5.63;5.03;;;27.70;86.60;;;;;;5033711;28;20321;-26
2022/07/24 12:28:02;;;;;;;5.97;5.38;;;27.70;86.70;;;;;;5033832;28;20021;-26
2022/07/24 12:30:34;;;;;;;7.50;5.50;;;27.70;86.60;;;;;;5033725;28;20022;-26
2022/07/24 12:33:11;;;;;;;5.50;5.00;;;27.70;86.70;;;;;;5033755;28;20033;-26
2022/07/24 12:36:01;;;;;;;5.82;4.70;;;27.70;86.70;;;;;;5033587;28;20029;-26
2022/07/24 12:38:38;;;;;;;5.63;4.93;;;27.80;86.70;;;;;;5024238;28;20033;-26
2022/07/24 12:41:12;;;;;;;6.05;5.15;;;27.80;86.70;;;;;;5033646;28;20014;-26
2022/07/24 12:43:55;;;;;;;7.07;5.15;;;27.80;86.70;;;;;;5015640;28;20025;-26
2022/07/24 12:46:23;;;;;;;6.40;4.90;;;27.80;86.60;;;;;;5033530;28;20032;-26
2022/07/24 12:49:07;;;;;;;5.30;4.80;;;27.90;86.60;;;;;;5033464;28;20053;-26
2022/07/24 12:51:54;;;;;;;7.47;5.05;;;27.90;86.60;;;;;;5033363;28;20021;-26
2022/07/24 12:54:23;;;;;;;5.47;4.97;;;27.90;86.50;;;;;;5033180;28;20025;-26
2022/07/24 12:56:54;;;;;;;5.93;5.07;;;27.90;86.50;;;;;;5033315;28;20025;-26
2022/07/24 12:59:32;;;;;;;5.68;5.18;;;27.90;86.70;;;;;;5033195;28;20052;-26
2022/07/24 13:02:09;;;;;;;5.45;4.95;;;27.90;86.70;;;;;;5033322;28;20087;-26
2022/07/24 13:05:01;;;;;;;5.68;5.07;;;27.80;87.40;;;;;;5033042;28;20033;-26
2022/07/24 13:07:26;;;;;;;5.65;4.90;;;27.80;86.80;;;;;;5030153;28;20029;-26
2022/07/24 13:09:52;;;;;;;5.75;5.18;;;27.80;86.90;;;;;;5015181;28;20125;-26